sensor_id;sensor_type;location;lat;lon;timestamp;pressure;altitude;pressure_sealevel;temperature;humidity
34931;BME280;21134;49.646;8.560;2023-07-29T00:00:52;99905.47;;;18.36;100.00
34931;BME280;21134;49.646;8.560;2023-07-29T00:03:18;99901.25;;;18.34;100.00
34931;BME280;21134;49.646;8.560;2023-07-29T00:05:47;99905.56;;;18.35;100.00
34931;BME280;21134;49.646;8.560;2023-07-29T00:08:13;99899.47;;;18.36;100.00
34931;BME280;21134;49.646;8.560;2023-07-29T00:10:40;99898.41;;;18.40;100.00
34931;BME280;21134;49.646;8.560;2023-07-29T00:13:08;99883.91;;;18.36;100.00
34931;BME280;21134;49.646;8.560;2023-07-29T00:15:34;99883.09;;;18.35;100.00
34931;BME280;21134;49.646;8.560;2023-07-29T00:18:01;99879.56;;;18.36;100.00
34931;BME280;21134;49.646;8.560;2023-07-29T00:20:27;99875.19;;;18.39;100.00
34931;BME280;21134;49.646;8.560;2023-07-29T00:22:54;99886.50;;;18.36;100.00
34931;BME280;21134;49.646;8.560;2023-07-29T00:25:22;99881.25;;;18.38;100.00
34931;BME280;21134;49.646;8.560;2023-07-29T00:27:48;99877.78;;;18.39;100.00
34931;BME280;21134;49.646;8.560;2023-07-29T00:30:16;99875.94;;;18.41;100.00
34931;BME280;21134;49.646;8.560;2023-07-29T00:32:43;99868.16;;;18.41;100.00
34931;BME280;21134;49.646;8.560;2023-07-29T00:35:09;99863.78;;;18.43;100.00
34931;BME280;21134;49.646;8.560;2023-07-29T00:37:36;99867.97;;;18.45;100.00
34931;BME280;21134;49.646;8.560;2023-07-29T00:40:05;99863.56;;;18.47;100.00
34931;BME280;21134;49.646;8.560;2023-07-29T00:42:35;99856.56;;;18.49;100.00
34931;BME280;21134;49.646;8.560;2023-07-29T00:45:02;99857.41;;;18.50;100.00
34931;BME280;21134;49.646;8.560;2023-07-29T00:47:32;99845.16;;;18.53;100.00
34931;BME280;21134;49.646;8.560;2023-07-29T00:49:59;99848.66;;;18.52;100.00
34931;BME280;21134;49.646;8.560;2023-07-29T00:52:25;99846.22;;;18.49;100.00
34931;BME280;21134;49.646;8.560;2023-07-29T00:54:52;99846.28;;;18.48;100.00
34931;BME280;21134;49.646;8.560;2023-07-29T00:57:19;99835.97;;;18.46;100.00
34931;BME280;21134;49.646;8.560;2023-07-29T00:59:46;99832.69;;;18.43;100.00
34931;BME280;21134;49.646;8.560;2023-07-29T01:02:12;99842.25;;;18.41;100.00
34931;BME280;21134;49.646;8.560;2023-07-29T01:04:40;99841.50;;;18.39;100.00
34931;BME280;21134;49.646;8.560;2023-07-29T01:07:13;99832.03;;;18.38;100.00
34931;BME280;21134;49.646;8.560;2023-07-29T01:09:44;99834.72;;;18.36;100.00
34931;BME280;21134;49.646;8.560;2023-07-29T01:12:20;99838.25;;;18.33;100.00
34931;BME280;21134;49.646;8.560;2023-07-29T01:15:04;99842.59;;;18.33;100.00
34931;BME280;21134;49.646;8.560;2023-07-29T01:17:38;99838.22;;;18.35;100.00
34931;BME280;21134;49.646;8.560;2023-07-29T01:20:09;99833.91;;;18.34;100.00
34931;BME280;21134;49.646;8.560;2023-07-29T01:22:37;99828.69;;;18.35;100.00
34931;BME280;21134;49.646;8.560;2023-07-29T01:25:07;99832.81;;;18.40;100.00
34931;BME280;21134;49.646;8.560;2023-07-29T01:27:33;99833.66;;;18.40;100.00
34931;BME280;21134;49.646;8.560;2023-07-29T01:30:01;99825.03;;;18.40;100.00
34931;BME280;21134;49.646;8.560;2023-07-29T01:32:34;99834.44;;;18.42;100.00
34931;BME280;21134;49.646;8.560;2023-07-29T01:35:05;99819.59;;;18.46;100.00
34931;BME280;21134;49.646;8.560;2023-07-29T01:37:34;99829.00;;;18.48;100.00
34931;BME280;21134;49.646;8.560;2023-07-29T01:40:07;99829.03;;;18.47;100.00
34931;BME280;21134;49.646;8.560;2023-07-29T01:42:34;99835.00;;;18.49;100.00
34931;BME280;21134;49.646;8.560;2023-07-29T01:45:01;99815.81;;;18.53;100.00
34931;BME280;21134;49.646;8.560;2023-07-29T01:47:27;99818.50;;;18.51;100.00
34931;BME280;21134;49.646;8.560;2023-07-29T01:49:54;99817.56;;;18.52;100.00
34931;BME280;21134;49.646;8.560;2023-07-29T01:52:20;99818.28;;;18.56;100.00
34931;BME280;21134;49.646;8.560;2023-07-29T01:54:48;99812.38;;;18.52;100.00
34931;BME280;21134;49.646;8.560;2023-07-29T01:57:15;99809.09;;;18.49;100.00
34931;BME280;21134;49.646;8.560;2023-07-29T01:59:42;99816.91;;;18.47;100.00
34931;BME280;21134;49.646;8.560;2023-07-29T02:02:08;99815.25;;;18.46;100.00
34931;BME280;21134;49.646;8.560;2023-07-29T02:04:35;99811.75;;;18.47;100.00
34931;BME280;21134;49.646;8.560;2023-07-29T02:07:01;99803.13;;;18.47;100.00
34931;BME280;21134;49.646;8.560;2023-07-29T02:09:28;99805.69;;;18.48;100.00
34931;BME280;21134;49.646;8.560;2023-07-29T02:11:56;99798.09;;;18.44;100.00
34931;BME280;21134;49.646;8.560;2023-07-29T02:14:24;99795.31;;;18.48;100.00
34931;BME280;21134;49.646;8.560;2023-07-29T02:16:50;99800.41;;;18.50;100.00
34931;BME280;21134;49.646;8.560;2023-07-29T02:19:17;99793.78;;;18.44;100.00
34931;BME280;21134;49.646;8.560;2023-07-29T02:21:44;99790.47;;;18.41;100.00
34931;BME280;21134;49.646;8.560;2023-07-29T02:24:10;99790.59;;;18.38;100.00
34931;BME280;21134;49.646;8.560;2023-07-29T02:26:37;99797.59;;;18.35;100.00
34931;BME280;21134;49.646;8.560;2023-07-29T02:29:03;99794.19;;;18.35;100.00
34931;BME280;21134;49.646;8.560;2023-07-29T02:31:31;99793.31;;;18.34;100.00
34931;BME280;21134;49.646;8.560;2023-07-29T02:33:59;99791.63;;;18.33;100.00
34931;BME280;21134;49.646;8.560;2023-07-29T02:36:26;99799.28;;;18.36;100.00
34931;BME280;21134;49.646;8.560;2023-07-29T02:38:52;99795.84;;;18.36;100.00
34931;BME280;21134;49.646;8.560;2023-07-29T02:41:19;99795.91;;;18.34;100.00
34931;BME280;21134;49.646;8.560;2023-07-29T02:43:48;99794.19;;;18.35;100.00
34931;BME280;21134;49.646;8.560;2023-07-29T02:46:15;99788.13;;;18.34;100.00
34931;BME280;21134;49.646;8.560;2023-07-29T02:48:44;99795.06;;;18.34;100.00
34931;BME280;21134;49.646;8.560;2023-07-29T02:51:10;99798.66;;;18.31;100.00
34931;BME280;21134;49.646;8.560;2023-07-29T02:53:37;99796.13;;;18.30;100.00
34931;BME280;21134;49.646;8.560;2023-07-29T02:56:04;99785.75;;;18.30;100.00
34931;BME280;21134;49.646;8.560;2023-07-29T02:58:31;99793.53;;;18.30;100.00
34931;BME280;21134;49.646;8.560;2023-07-29T03:01:00;99791.72;;;18.32;100.00
34931;BME280;21134;49.646;8.560;2023-07-29T03:03:28;99784.84;;;18.31;100.00
34931;BME280;21134;49.646;8.560;2023-07-29T03:05:58;99783.25;;;18.28;100.00
34931;BME280;21134;49.646;8.560;2023-07-29T03:08:25;99777.44;;;18.23;100.00
34931;BME280;21134;49.646;8.560;2023-07-29T03:10:51;99772.25;;;18.23;100.00
34931;BME280;21134;49.646;8.560;2023-07-29T03:13:18;99768.88;;;18.21;100.00
34931;BME280;21134;49.646;8.560;2023-07-29T03:15:44;99759.28;;;18.23;100.00
34931;BME280;21134;49.646;8.560;2023-07-29T03:18:11;99754.47;;;18.16;100.00
34931;BME280;21134;49.646;8.560;2023-07-29T03:20:37;99751.94;;;18.14;100.00
34931;BME280;21134;49.646;8.560;2023-07-29T03:23:05;99748.63;;;18.10;100.00
34931;BME280;21134;49.646;8.560;2023-07-29T03:25:32;99755.56;;;18.10;100.00
34931;BME280;21134;49.646;8.560;2023-07-29T03:27:58;99747.09;;;18.06;100.00
34931;BME280;21134;49.646;8.560;2023-07-29T03:30:25;99752.16;;;18.09;100.00
34931;BME280;21134;49.646;8.560;2023-07-29T03:32:52;99765.00;;;18.11;100.00
34931;BME280;21134;49.646;8.560;2023-07-29T03:35:18;99758.88;;;18.13;100.00
34931;BME280;21134;49.646;8.560;2023-07-29T03:37:45;99756.28;;;18.13;100.00
34931;BME280;21134;49.646;8.560;2023-07-29T03:40:14;99751.09;;;18.13;100.00
34931;BME280;21134;49.646;8.560;2023-07-29T03:42:40;99746.41;;;18.22;100.00
34931;BME280;21134;49.646;8.560;2023-07-29T03:45:07;99752.50;;;18.21;100.00
34931;BME280;21134;49.646;8.560;2023-07-29T03:47:35;99745.56;;;18.21;100.00
34931;BME280;21134;49.646;8.560;2023-07-29T03:50:01;99743.91;;;18.20;100.00
34931;BME280;21134;49.646;8.560;2023-07-29T03:52:28;99745.50;;;18.23;100.00
34931;BME280;21134;49.646;8.560;2023-07-29T03:54:55;99746.47;;;18.20;100.00
34931;BME280;21134;49.646;8.560;2023-07-29T03:57:23;99746.47;;;18.20;100.00
34931;BME280;21134;49.646;8.560;2023-07-29T03:59:49;99749.91;;;18.21;100.00
34931;BME280;21134;49.646;8.560;2023-07-29T04:02:16;99754.13;;;18.23;100.00
34931;BME280;21134;49.646;8.560;2023-07-29T04:04:42;99759.16;;;18.26;100.00
34931;BME280;21134;49.646;8.560;2023-07-29T04:07:12;99756.56;;;18.26;100.00
34931;BME280;21134;49.646;8.560;2023-07-29T04:09:39;99752.22;;;18.27;100.00
34931;BME280;21134;49.646;8.560;2023-07-29T04:12:06;99758.19;;;18.29;100.00
34931;BME280;21134;49.646;8.560;2023-07-29T04:14:34;99772.69;;;18.33;100.00
34931;BME280;21134;49.646;8.560;2023-07-29T04:17:01;99767.41;;;18.34;100.00
34931;BME280;21134;49.646;8.560;2023-07-29T04:19:27;99761.34;;;18.35;100.00
34931;BME280;21134;49.646;8.560;2023-07-29T04:21:54;99759.59;;;18.36;100.00
34931;BME280;21134;49.646;8.560;2023-07-29T04:24:20;99756.88;;;18.39;100.00
34931;BME280;21134;49.646;8.560;2023-07-29T04:26:48;99752.38;;;18.43;100.00
34931;BME280;21134;49.646;8.560;2023-07-29T04:29:15;99749.78;;;18.43;100.00
34931;BME280;21134;49.646;8.560;2023-07-29T04:31:42;99742.72;;;18.46;100.00
34931;BME280;21134;49.646;8.560;2023-07-29T04:34:09;99740.13;;;18.46;100.00
34931;BME280;21134;49.646;8.560;2023-07-29T04:36:35;99742.81;;;18.45;100.00
34931;BME280;21134;49.646;8.560;2023-07-29T04:39:02;99744.59;;;18.43;100.00
34931;BME280;21134;49.646;8.560;2023-07-29T04:41:28;99748.81;;;18.45;100.00
34931;BME280;21134;49.646;8.560;2023-07-29T04:43:55;99744.38;;;18.47;100.00
34931;BME280;21134;49.646;8.560;2023-07-29T04:46:22;99752.09;;;18.49;100.00
34931;BME280;21134;49.646;8.560;2023-07-29T04:48:49;99755.47;;;18.51;100.00
34931;BME280;21134;49.646;8.560;2023-07-29T04:51:16;99750.06;;;18.55;100.00
34931;BME280;21134;49.646;8.560;2023-07-29T04:53:42;99747.97;;;18.64;100.00
34931;BME280;21134;49.646;8.560;2023-07-29T04:56:09;99742.66;;;18.67;100.00
34931;BME280;21134;49.646;8.560;2023-07-29T04:58:35;99746.78;;;18.71;100.00
34931;BME280;21134;49.646;8.560;2023-07-29T05:01:03;99750.78;;;18.78;100.00
34931;BME280;21134;49.646;8.560;2023-07-29T05:03:29;99755.69;;;18.84;100.00
34931;BME280;21134;49.646;8.560;2023-07-29T05:05:58;99763.31;;;18.87;100.00
34931;BME280;21134;49.646;8.560;2023-07-29T05:08:24;99778.19;;;18.84;100.00
34931;BME280;21134;49.646;8.560;2023-07-29T05:10:51;99781.84;;;18.79;100.00
34931;BME280;21134;49.646;8.560;2023-07-29T05:13:19;99780.22;;;18.77;100.00
34931;BME280;21134;49.646;8.560;2023-07-29T05:15:47;99781.88;;;18.78;100.00
34931;BME280;21134;49.646;8.560;2023-07-29T05:18:14;99783.78;;;18.74;100.00
34931;BME280;21134;49.646;8.560;2023-07-29T05:20:40;99779.84;;;18.85;100.00
34931;BME280;21134;49.646;8.560;2023-07-29T05:23:08;99788.00;;;18.77;100.00
34931;BME280;21134;49.646;8.560;2023-07-29T05:25:35;99788.13;;;18.74;100.00
34931;BME280;21134;49.646;8.560;2023-07-29T05:28:02;99780.41;;;18.72;100.00
34931;BME280;21134;49.646;8.560;2023-07-29T05:30:29;99768.16;;;18.76;100.00
34931;BME280;21134;49.646;8.560;2023-07-29T05:32:57;99766.19;;;18.81;100.00
34931;BME280;21134;49.646;8.560;2023-07-29T05:35:23;99771.75;;;18.92;100.00
34931;BME280;21134;49.646;8.560;2023-07-29T05:37:50;99775.06;;;18.94;100.00
34931;BME280;21134;49.646;8.560;2023-07-29T05:40:18;99779.44;;;18.94;100.00
34931;BME280;21134;49.646;8.560;2023-07-29T05:42:44;99771.50;;;18.97;100.00
34931;BME280;21134;49.646;8.560;2023-07-29T05:45:11;99770.59;;;18.98;100.00
34931;BME280;21134;49.646;8.560;2023-07-29T05:47:38;99782.38;;;19.05;100.00
34931;BME280;21134;49.646;8.560;2023-07-29T05:50:05;99783.25;;;19.04;100.00
34931;BME280;21134;49.646;8.560;2023-07-29T05:52:32;99784.56;;;18.95;100.00
34931;BME280;21134;49.646;8.560;2023-07-29T05:54:58;99779.50;;;18.92;100.00
34931;BME280;21134;49.646;8.560;2023-07-29T05:57:26;99789.94;;;18.91;100.00
34931;BME280;21134;49.646;8.560;2023-07-29T05:59:53;99784.69;;;18.92;100.00
34931;BME280;21134;49.646;8.560;2023-07-29T06:02:19;99780.63;;;18.87;100.00
34931;BME280;21134;49.646;8.560;2023-07-29T06:04:46;99784.19;;;18.84;100.00
34931;BME280;21134;49.646;8.560;2023-07-29T06:07:12;99778.88;;;18.87;100.00
34931;BME280;21134;49.646;8.560;2023-07-29T06:09:39;99783.09;;;18.90;100.00
34931;BME280;21134;49.646;8.560;2023-07-29T06:12:07;99774.31;;;18.92;100.00
34931;BME280;21134;49.646;8.560;2023-07-29T06:14:35;99769.69;;;18.99;100.00
34931;BME280;21134;49.646;8.560;2023-07-29T06:17:01;99764.13;;;19.07;100.00
34931;BME280;21134;49.646;8.560;2023-07-29T06:19:28;99770.69;;;19.14;100.00
34931;BME280;21134;49.646;8.560;2023-07-29T06:21:55;99773.91;;;19.19;100.00
34931;BME280;21134;49.646;8.560;2023-07-29T06:24:22;99778.66;;;19.28;100.00
34931;BME280;21134;49.646;8.560;2023-07-29T06:26:48;99781.56;;;19.39;100.00
34931;BME280;21134;49.646;8.560;2023-07-29T06:29:15;99782.25;;;19.43;100.00
34931;BME280;21134;49.646;8.560;2023-07-29T06:31:42;99781.34;;;19.44;100.00
34931;BME280;21134;49.646;8.560;2023-07-29T06:34:09;99778.69;;;19.45;100.00
34931;BME280;21134;49.646;8.560;2023-07-29T06:36:35;99775.94;;;19.48;100.00
34931;BME280;21134;49.646;8.560;2023-07-29T06:39:02;99782.09;;;19.46;100.00
34931;BME280;21134;49.646;8.560;2023-07-29T06:41:28;99775.09;;;19.48;100.00
34931;BME280;21134;49.646;8.560;2023-07-29T06:43:55;99772.41;;;19.49;100.00
34931;BME280;21134;49.646;8.560;2023-07-29T06:46:22;99763.50;;;19.55;100.00
34931;BME280;21134;49.646;8.560;2023-07-29T06:48:50;99770.13;;;19.61;100.00
34931;BME280;21134;49.646;8.560;2023-07-29T06:51:16;99775.28;;;19.62;100.00
34931;BME280;21134;49.646;8.560;2023-07-29T06:53:43;99781.59;;;19.57;100.00
34931;BME280;21134;49.646;8.560;2023-07-29T06:56:09;99785.38;;;19.49;100.00
34931;BME280;21134;49.646;8.560;2023-07-29T06:58:36;99793.41;;;19.45;100.00
34931;BME280;21134;49.646;8.560;2023-07-29T07:01:03;99802.72;;;19.49;100.00
34931;BME280;21134;49.646;8.560;2023-07-29T07:03:29;99802.13;;;19.61;100.00
34931;BME280;21134;49.646;8.560;2023-07-29T07:05:58;99801.69;;;19.70;100.00
34931;BME280;21134;49.646;8.560;2023-07-29T07:08:25;99798.88;;;19.92;100.00
34931;BME280;21134;49.646;8.560;2023-07-29T07:10:51;99796.38;;;20.07;100.00
34931;BME280;21134;49.646;8.560;2023-07-29T07:13:17;99819.50;;;20.29;100.00
34931;BME280;21134;49.646;8.560;2023-07-29T07:15:44;99826.50;;;20.44;100.00
34931;BME280;21134;49.646;8.560;2023-07-29T07:18:11;99814.03;;;20.51;100.00
34931;BME280;21134;49.646;8.560;2023-07-29T07:20:37;99817.66;;;20.31;100.00
34931;BME280;21134;49.646;8.560;2023-07-29T07:23:05;99809.59;;;20.19;100.00
34931;BME280;21134;49.646;8.560;2023-07-29T07:25:36;99806.63;;;20.10;100.00
34931;BME280;21134;49.646;8.560;2023-07-29T07:28:02;99795.81;;;20.02;100.00
34931;BME280;21134;49.646;8.560;2023-07-29T07:30:29;99824.44;;;19.83;100.00
34931;BME280;21134;49.646;8.560;2023-07-29T07:32:55;99837.88;;;19.73;100.00
34931;BME280;21134;49.646;8.560;2023-07-29T07:35:22;99835.75;;;19.64;100.00
34931;BME280;21134;49.646;8.560;2023-07-29T07:37:48;99821.84;;;19.65;100.00
34931;BME280;21134;49.646;8.560;2023-07-29T07:40:16;99825.38;;;19.82;100.00
34931;BME280;21134;49.646;8.560;2023-07-29T07:42:43;99817.03;;;19.92;100.00
34931;BME280;21134;49.646;8.560;2023-07-29T07:45:09;99818.50;;;19.98;100.00
34931;BME280;21134;49.646;8.560;2023-07-29T07:47:36;99817.56;;;19.99;100.00
34931;BME280;21134;49.646;8.560;2023-07-29T07:50:03;99825.44;;;19.97;100.00
34931;BME280;21134;49.646;8.560;2023-07-29T07:52:29;99822.91;;;19.96;100.00
34931;BME280;21134;49.646;8.560;2023-07-29T07:54:56;99813.66;;;19.90;100.00
34931;BME280;21134;49.646;8.560;2023-07-29T07:57:23;99825.13;;;19.86;100.00
34931;BME280;21134;49.646;8.560;2023-07-29T07:59:50;99829.16;;;19.74;100.00
34931;BME280;21134;49.646;8.560;2023-07-29T08:02:17;99839.09;;;19.66;100.00
34931;BME280;21134;49.646;8.560;2023-07-29T08:04:44;99835.28;;;19.73;100.00
34931;BME280;21134;49.646;8.560;2023-07-29T08:07:10;99831.19;;;19.50;100.00
34931;BME280;21134;49.646;8.560;2023-07-29T08:09:38;99826.91;;;19.49;100.00
34931;BME280;21134;49.646;8.560;2023-07-29T08:12:05;99829.59;;;19.48;100.00
34931;BME280;21134;49.646;8.560;2023-07-29T08:14:33;99836.25;;;19.54;100.00
34931;BME280;21134;49.646;8.560;2023-07-29T08:17:00;99833.97;;;19.65;100.00
34931;BME280;21134;49.646;8.560;2023-07-29T08:19:27;99834.06;;;19.81;100.00
34931;BME280;21134;49.646;8.560;2023-07-29T08:21:53;99828.88;;;19.81;100.00
34931;BME280;21134;49.646;8.560;2023-07-29T08:24:20;99832.84;;;19.70;100.00
34931;BME280;21134;49.646;8.560;2023-07-29T08:26:46;99831.19;;;19.69;100.00
34931;BME280;21134;49.646;8.560;2023-07-29T08:29:13;99832.63;;;19.75;100.00
34931;BME280;21134;49.646;8.560;2023-07-29T08:31:40;99828.97;;;19.79;100.00
34931;BME280;21134;49.646;8.560;2023-07-29T08:34:07;99834.59;;;19.87;100.00
34931;BME280;21134;49.646;8.560;2023-07-29T08:36:33;99844.00;;;19.90;100.00
34931;BME280;21134;49.646;8.560;2023-07-29T08:39:00;99841.69;;;20.18;100.00
34931;BME280;21134;49.646;8.560;2023-07-29T08:41:31;99845.03;;;20.71;100.00
34931;BME280;21134;49.646;8.560;2023-07-29T08:44:02;99844.97;;;21.20;100.00
34931;BME280;21134;49.646;8.560;2023-07-29T08:46:31;99829.50;;;21.49;97.32
34931;BME280;21134;49.646;8.560;2023-07-29T08:49:01;99830.84;;;21.56;94.45
34931;BME280;21134;49.646;8.560;2023-07-29T08:51:28;99835.50;;;21.19;95.24
34931;BME280;21134;49.646;8.560;2023-07-29T08:53:55;99835.50;;;21.19;96.86
34931;BME280;21134;49.646;8.560;2023-07-29T08:56:22;99836.91;;;21.09;98.00
34931;BME280;21134;49.646;8.560;2023-07-29T08:58:49;99838.00;;;21.05;100.00
34931;BME280;21134;49.646;8.560;2023-07-29T09:01:16;99842.03;;;21.26;100.00
34931;BME280;21134;49.646;8.560;2023-07-29T09:03:43;99845.13;;;21.33;98.90
34931;BME280;21134;49.646;8.560;2023-07-29T09:06:12;99854.94;;;21.59;97.23
34931;BME280;21134;49.646;8.560;2023-07-29T09:08:40;99862.59;;;21.93;95.42
34931;BME280;21134;49.646;8.560;2023-07-29T09:11:07;99868.16;;;22.01;91.51
34931;BME280;21134;49.646;8.560;2023-07-29T09:13:33;99869.72;;;22.19;94.05
34931;BME280;21134;49.646;8.560;2023-07-29T09:16:00;99856.72;;;22.34;94.18
34931;BME280;21134;49.646;8.560;2023-07-29T09:18:27;99857.19;;;22.40;95.39
34931;BME280;21134;49.646;8.560;2023-07-29T09:20:53;99858.41;;;22.63;94.24
34931;BME280;21134;49.646;8.560;2023-07-29T09:23:21;99863.69;;;23.05;92.45
34931;BME280;21134;49.646;8.560;2023-07-29T09:25:48;99857.66;;;23.04;90.61
34931;BME280;21134;49.646;8.560;2023-07-29T09:28:15;99858.19;;;23.09;91.61
34931;BME280;21134;49.646;8.560;2023-07-29T09:30:44;99853.97;;;23.07;90.32
34931;BME280;21134;49.646;8.560;2023-07-29T09:33:11;99860.53;;;23.00;90.80
34931;BME280;21134;49.646;8.560;2023-07-29T09:35:38;99847.38;;;22.87;91.11
34931;BME280;21134;49.646;8.560;2023-07-29T09:38:05;99844.59;;;23.04;88.28
34931;BME280;21134;49.646;8.560;2023-07-29T09:40:37;99838.63;;;23.56;87.16
34931;BME280;21134;49.646;8.560;2023-07-29T09:43:05;99833.28;;;23.85;88.47
34931;BME280;21134;49.646;8.560;2023-07-29T09:45:34;99824.50;;;23.99;84.07
34931;BME280;21134;49.646;8.560;2023-07-29T09:48:01;99829.13;;;24.08;84.65
34931;BME280;21134;49.646;8.560;2023-07-29T09:50:28;99827.13;;;24.11;80.16
34931;BME280;21134;49.646;8.560;2023-07-29T09:52:56;99822.09;;;24.08;83.11
34931;BME280;21134;49.646;8.560;2023-07-29T09:55:24;99826.41;;;24.22;81.84
34931;BME280;21134;49.646;8.560;2023-07-29T09:57:56;99807.91;;;24.38;81.59
34931;BME280;21134;49.646;8.560;2023-07-29T10:00:23;99808.63;;;24.53;82.51
34931;BME280;21134;49.646;8.560;2023-07-29T10:02:50;99815.22;;;24.20;76.98
34931;BME280;21134;49.646;8.560;2023-07-29T10:05:18;99796.28;;;23.91;81.06
34931;BME280;21134;49.646;8.560;2023-07-29T10:07:44;99797.66;;;24.22;81.64
34931;BME280;21134;49.646;8.560;2023-07-29T10:10:13;99799.53;;;24.46;78.56
34931;BME280;21134;49.646;8.560;2023-07-29T10:12:39;99807.50;;;24.44;77.30
34931;BME280;21134;49.646;8.560;2023-07-29T10:15:09;99810.94;;;24.45;76.36
34931;BME280;21134;49.646;8.560;2023-07-29T10:17:38;99809.78;;;24.49;76.19
34931;BME280;21134;49.646;8.560;2023-07-29T10:20:06;99809.03;;;24.59;74.06
34931;BME280;21134;49.646;8.560;2023-07-29T10:22:34;99812.88;;;24.79;75.52
34931;BME280;21134;49.646;8.560;2023-07-29T10:25:03;99831.19;;;25.16;76.38
34931;BME280;21134;49.646;8.560;2023-07-29T10:27:35;99826.88;;;25.39;73.51
34931;BME280;21134;49.646;8.560;2023-07-29T10:30:09;99813.63;;;25.54;71.29
34931;BME280;21134;49.646;8.560;2023-07-29T10:32:36;99824.16;;;25.76;69.83
34931;BME280;21134;49.646;8.560;2023-07-29T10:35:05;99808.06;;;26.05;70.58
34931;BME280;21134;49.646;8.560;2023-07-29T10:37:32;99809.03;;;26.26;68.41
34931;BME280;21134;49.646;8.560;2023-07-29T10:39:59;99804.59;;;26.15;68.01
34931;BME280;21134;49.646;8.560;2023-07-29T10:42:25;99810.56;;;26.17;67.12
34931;BME280;21134;49.646;8.560;2023-07-29T10:44:52;99807.94;;;25.60;69.06
34931;BME280;21134;49.646;8.560;2023-07-29T10:47:23;99796.63;;;25.35;70.41
34931;BME280;21134;49.646;8.560;2023-07-29T10:49:52;99789.38;;;25.74;69.84
34931;BME280;21134;49.646;8.560;2023-07-29T10:52:40;99789.84;;;26.14;68.12
34931;BME280;21134;49.646;8.560;2023-07-29T10:55:24;99798.44;;;26.39;66.46
34931;BME280;21134;49.646;8.560;2023-07-29T10:57:51;99784.69;;;26.58;64.66
34931;BME280;21134;49.646;8.560;2023-07-29T11:00:19;99783.72;;;26.70;63.70
34931;BME280;21134;49.646;8.560;2023-07-29T11:02:57;99779.19;;;26.72;64.23
34931;BME280;21134;49.646;8.560;2023-07-29T11:05:25;99779.59;;;26.56;65.11
34931;BME280;21134;49.646;8.560;2023-07-29T11:07:51;99779.69;;;26.43;64.93
34931;BME280;21134;49.646;8.560;2023-07-29T11:10:18;99775.78;;;26.49;64.63
34931;BME280;21134;49.646;8.560;2023-07-29T11:12:45;99782.59;;;26.52;65.17
34931;BME280;21134;49.646;8.560;2023-07-29T11:15:23;99771.00;;;26.65;66.10
34931;BME280;21134;49.646;8.560;2023-07-29T11:17:52;99777.50;;;26.82;64.75
34931;BME280;21134;49.646;8.560;2023-07-29T11:20:22;99779.16;;;26.95;61.46
34931;BME280;21134;49.646;8.560;2023-07-29T11:22:49;99767.13;;;26.81;61.74
34931;BME280;21134;49.646;8.560;2023-07-29T11:25:17;99769.97;;;26.89;62.52
34931;BME280;21134;49.646;8.560;2023-07-29T11:27:44;99762.97;;;26.67;62.56
34931;BME280;21134;49.646;8.560;2023-07-29T11:30:13;99757.63;;;26.35;63.51
34931;BME280;21134;49.646;8.560;2023-07-29T11:32:41;99760.00;;;26.38;64.45
34931;BME280;21134;49.646;8.560;2023-07-29T11:35:10;99753.81;;;26.28;63.47
34931;BME280;21134;49.646;8.560;2023-07-29T11:37:38;99748.34;;;26.31;63.68
34931;BME280;21134;49.646;8.560;2023-07-29T11:40:05;99748.81;;;26.58;63.65
34931;BME280;21134;49.646;8.560;2023-07-29T11:42:34;99748.75;;;26.81;59.52
34931;BME280;21134;49.646;8.560;2023-07-29T11:45:01;99753.47;;;26.98;58.02
34931;BME280;21134;49.646;8.560;2023-07-29T11:47:29;99743.97;;;27.18;57.11
34931;BME280;21134;49.646;8.560;2023-07-29T11:49:58;99752.53;;;27.31;55.18
34931;BME280;21134;49.646;8.560;2023-07-29T11:52:27;99748.88;;;27.11;57.02
34931;BME280;21134;49.646;8.560;2023-07-29T11:54:54;99754.97;;;27.12;57.50
34931;BME280;21134;49.646;8.560;2023-07-29T11:57:20;99746.66;;;26.96;55.73
34931;BME280;21134;49.646;8.560;2023-07-29T11:59:47;99744.38;;;27.02;54.86
34931;BME280;21134;49.646;8.560;2023-07-29T12:02:16;99735.75;;;27.11;55.22
34931;BME280;21134;49.646;8.560;2023-07-29T12:04:43;99748.75;;;27.45;54.12
34931;BME280;21134;49.646;8.560;2023-07-29T12:07:12;99750.22;;;27.17;53.13
34931;BME280;21134;49.646;8.560;2023-07-29T12:09:41;99756.00;;;27.32;54.67
34931;BME280;21134;49.646;8.560;2023-07-29T12:12:08;99741.59;;;27.15;52.33
34931;BME280;21134;49.646;8.560;2023-07-29T12:14:35;99745.53;;;27.63;52.56
34931;BME280;21134;49.646;8.560;2023-07-29T12:17:03;99742.47;;;27.78;50.32
34931;BME280;21134;49.646;8.560;2023-07-29T12:19:33;99759.47;;;27.95;50.80
34931;BME280;21134;49.646;8.560;2023-07-29T12:22:00;99753.53;;;28.03;49.56
34931;BME280;21134;49.646;8.560;2023-07-29T12:24:29;99739.84;;;27.57;50.69
34931;BME280;21134;49.646;8.560;2023-07-29T12:26:57;99747.75;;;27.57;50.22
34931;BME280;21134;49.646;8.560;2023-07-29T12:29:25;99748.47;;;27.69;51.81
34931;BME280;21134;49.646;8.560;2023-07-29T12:31:57;99746.78;;;27.79;50.64
34931;BME280;21134;49.646;8.560;2023-07-29T12:34:26;99761.13;;;27.54;51.78
34931;BME280;21134;49.646;8.560;2023-07-29T12:36:53;99759.69;;;27.50;51.18
34931;BME280;21134;49.646;8.560;2023-07-29T12:39:21;99741.50;;;27.58;51.24
34931;BME280;21134;49.646;8.560;2023-07-29T12:41:48;99751.09;;;27.80;50.63
34931;BME280;21134;49.646;8.560;2023-07-29T12:44:16;99760.06;;;27.78;50.53
34931;BME280;21134;49.646;8.560;2023-07-29T12:46:43;99754.03;;;27.87;49.62
34931;BME280;21134;49.646;8.560;2023-07-29T12:49:10;99756.06;;;28.14;47.37
34931;BME280;21134;49.646;8.560;2023-07-29T12:51:37;99774.44;;;28.04;47.24
34931;BME280;21134;49.646;8.560;2023-07-29T12:54:04;99765.81;;;27.93;47.30